createdAt,value
2024-01-17T00:00:57.867Z,0.18
2024-01-17T00:03:28.488Z,0.15
2024-01-17T00:06:02.450Z,0.22
2024-01-17T00:08:34.161Z,0.16
2024-01-17T00:11:07.270Z,0.22
2024-01-17T00:13:52.251Z,0.00
2024-01-17T00:16:27.851Z,0.04
2024-01-17T00:19:06.122Z,0.11
2024-01-17T00:21:39.589Z,0.04
2024-01-17T00:24:07.839Z,0.10
2024-01-17T00:26:42.690Z,0.31
2024-01-17T00:29:25.264Z,0.32
2024-01-17T00:31:59.214Z,0.28
2024-01-17T00:34:40.394Z,0.33
2024-01-17T00:37:13.848Z,0.08
2024-01-17T00:39:54.818Z,0.06
2024-01-17T00:42:29.928Z,0.19
2024-01-17T00:45:00.863Z,0.35
2024-01-17T00:47:32.575Z,0.42
2024-01-17T00:50:03.548Z,0.36
2024-01-17T00:52:39.299Z,0.40
2024-01-17T00:55:11.576Z,0.44
2024-01-17T00:57:48.166Z,0.41
2024-01-17T01:00:22.832Z,-0.17
2024-01-17T01:02:57.483Z,0.39
2024-01-17T01:05:30.159Z,0.42
2024-01-17T01:07:58.975Z,0.46
2024-01-17T01:10:37.447Z,0.32
2024-01-17T01:13:06.167Z,0.32
2024-01-17T01:18:24.600Z,0.37
2024-01-17T01:20:56.769Z,0.36
2024-01-17T01:23:35.068Z,0.44
2024-01-17T01:26:08.871Z,0.34
2024-01-17T01:28:43.404Z,0.24
2024-01-17T01:31:14.787Z,0.27
2024-01-17T01:33:44.232Z,0.16
2024-01-17T01:36:18.997Z,0.14
2024-01-17T01:38:49.301Z,0.27
2024-01-17T01:41:18.723Z,0.31
2024-01-17T01:43:47.400Z,0.48
2024-01-17T01:46:38.785Z,0.49
2024-01-17T01:49:13.413Z,0.56
2024-01-17T01:51:50.919Z,0.51
2024-01-17T01:54:37.033Z,0.47
2024-01-17T01:57:10.919Z,0.30
2024-01-17T01:59:44.971Z,0.22
2024-01-17T02:02:15.022Z,0.33
2024-01-17T02:04:45.395Z,0.51
2024-01-17T02:07:23.108Z,0.32
2024-01-17T02:09:54.986Z,0.39
2024-01-17T02:12:31.107Z,0.40
2024-01-17T02:15:06.215Z,0.50
2024-01-17T02:17:40.582Z,0.50
2024-01-17T02:20:24.271Z,0.50
2024-01-17T02:22:55.160Z,0.51
2024-01-17T02:25:25.910Z,0.43
2024-01-17T02:28:07.821Z,0.50
2024-01-17T02:30:41.303Z,0.55
2024-01-17T02:33:18.052Z,0.58
2024-01-17T02:35:51.309Z,0.64
2024-01-17T02:38:30.199Z,0.63
2024-01-17T02:41:02.599Z,0.46
2024-01-17T02:43:33.687Z,0.25
2024-01-17T02:46:04.189Z,0.35
2024-01-17T02:48:39.141Z,0.45
2024-01-17T02:51:11.318Z,0.49
2024-01-17T02:53:45.046Z,0.42
2024-01-17T02:56:18.394Z,0.51
2024-01-17T02:58:52.063Z,0.67
2024-01-17T03:01:26.276Z,0.68
2024-01-17T03:04:04.598Z,0.69
2024-01-17T03:06:39.897Z,0.49
2024-01-17T03:09:12.262Z,0.50
2024-01-17T03:11:43.239Z,0.36
2024-01-17T03:14:12.927Z,0.40
2024-01-17T03:16:47.886Z,0.47
2024-01-17T03:19:17.476Z,0.39
2024-01-17T03:21:50.570Z,0.29
2024-01-17T03:24:21.417Z,0.42
2024-01-17T03:26:56.889Z,0.39
2024-01-17T03:29:37.753Z,0.35
2024-01-17T03:32:06.528Z,0.40
2024-01-17T03:34:35.064Z,0.44
2024-01-17T03:37:05.435Z,0.57
2024-01-17T03:39:39.278Z,0.59
2024-01-17T03:42:07.866Z,0.52
2024-01-17T03:44:36.627Z,0.40
2024-01-17T03:49:53.465Z,0.53
2024-01-17T03:52:25.053Z,0.49
2024-01-17T03:54:58.890Z,0.46
2024-01-17T03:57:32.054Z,0.40
2024-01-17T04:00:01.865Z,0.50
2024-01-17T04:02:37.385Z,0.52
2024-01-17T04:05:07.463Z,0.52
2024-01-17T04:07:36.555Z,0.51
2024-01-17T04:10:07.639Z,0.58
2024-01-17T04:12:41.215Z,0.75
2024-01-17T04:15:13.439Z,0.70
2024-01-17T04:17:55.435Z,0.67
2024-01-17T04:20:29.057Z,0.55
2024-01-17T04:23:09.658Z,0.57
2024-01-17T04:25:49.145Z,0.71
2024-01-17T04:28:21.864Z,0.64
2024-01-17T04:30:55.228Z,0.61
2024-01-17T04:33:28.216Z,0.60
2024-01-17T04:36:02.573Z,0.64
2024-01-17T04:38:32.550Z,0.62
2024-01-17T04:41:09.700Z,0.75
2024-01-17T04:43:41.405Z,0.75
2024-01-17T04:46:16.221Z,0.65
2024-01-17T04:48:51.728Z,0.79
2024-01-17T04:51:26.111Z,0.80
2024-01-17T04:53:56.166Z,0.71
2024-01-17T04:56:33.166Z,0.52
2024-01-17T04:59:08.764Z,0.58
2024-01-17T05:01:46.315Z,0.75
2024-01-17T05:04:23.847Z,0.74
2024-01-17T05:07:03.009Z,0.62
2024-01-17T05:09:34.001Z,0.73
2024-01-17T05:12:07.770Z,0.69
2024-01-17T05:14:43.260Z,0.66
2024-01-17T05:17:16.897Z,0.61
2024-01-17T05:19:51.919Z,0.71
2024-01-17T05:22:33.805Z,0.84
2024-01-17T05:25:04.711Z,0.77
2024-01-17T05:27:37.866Z,0.87
2024-01-17T05:30:15.944Z,0.78
2024-01-17T05:33:00.967Z,0.84
2024-01-17T05:35:32.416Z,0.75
2024-01-17T05:38:03.641Z,0.76
2024-01-17T05:40:34.392Z,0.78
2024-01-17T05:43:04.339Z,0.13
2024-01-17T05:45:38.005Z,0.61
2024-01-17T05:48:14.024Z,0.77
2024-01-17T05:50:48.646Z,0.76
2024-01-17T05:53:16.992Z,0.63
2024-01-17T05:55:53.889Z,0.05
2024-01-17T05:58:27.138Z,0.57
2024-01-17T06:01:01.787Z,0.63
2024-01-17T06:03:31.561Z,0.73
2024-01-17T06:06:11.287Z,0.79
2024-01-17T06:08:45.719Z,0.73
2024-01-17T06:11:18.533Z,0.76
2024-01-17T06:13:50.372Z,0.89
2024-01-17T06:16:30.523Z,0.84
2024-01-17T06:19:08.280Z,0.77
2024-01-17T06:21:50.477Z,0.70
2024-01-17T06:24:20.924Z,0.70
2024-01-17T06:26:55.134Z,0.79
2024-01-17T06:29:32.059Z,0.74
2024-01-17T06:32:00.824Z,0.74
2024-01-17T06:34:34.065Z,0.84
2024-01-17T06:37:06.932Z,0.82
2024-01-17T06:39:40.242Z,0.80
2024-01-17T06:42:08.913Z,0.79
2024-01-17T06:44:42.477Z,0.70
2024-01-17T06:47:23.791Z,0.72
2024-01-17T06:49:55.889Z,0.80
2024-01-17T06:52:29.855Z,0.81
2024-01-17T06:55:06.890Z,0.87
2024-01-17T06:57:38.423Z,0.84
2024-01-17T07:00:10.127Z,0.88
2024-01-17T07:02:42.634Z,0.81
2024-01-17T07:05:19.690Z,0.82
2024-01-17T07:07:53.284Z,0.82
2024-01-17T07:10:24.698Z,0.84
2024-01-17T07:12:58.835Z,0.91
2024-01-17T07:15:31.409Z,0.98
2024-01-17T07:18:05.951Z,0.82
2024-01-17T07:20:38.785Z,0.81
2024-01-17T07:23:09.724Z,0.91
2024-01-17T07:25:41.729Z,0.89
2024-01-17T07:28:12.066Z,0.76
2024-01-17T07:30:43.905Z,0.91
2024-01-17T07:33:16.402Z,0.97
2024-01-17T07:35:49.550Z,1.07
2024-01-17T07:38:20.577Z,1.09
2024-01-17T07:40:54.361Z,1.02
2024-01-17T07:43:38.129Z,1.01
2024-01-17T07:46:09.452Z,0.99
2024-01-17T07:48:45.489Z,0.99
2024-01-17T07:51:16.431Z,1.11
2024-01-17T07:53:46.309Z,1.12
2024-01-17T07:56:24.985Z,1.14
2024-01-17T07:58:58.745Z,1.22
2024-01-17T08:01:40.298Z,1.19
2024-01-17T08:04:16.077Z,1.12
2024-01-17T08:06:49.598Z,1.14
2024-01-17T08:09:32.285Z,1.19
2024-01-17T08:12:17.506Z,1.09
2024-01-17T08:14:50.870Z,1.17
2024-01-17T08:17:31.634Z,1.27
2024-01-17T08:20:04.721Z,1.26
2024-01-17T08:22:40.238Z,1.22
2024-01-17T08:25:16.015Z,1.36
2024-01-17T08:27:51.480Z,1.38
2024-01-17T08:30:25.845Z,1.31
2024-01-17T08:33:04.492Z,1.29
2024-01-17T08:35:38.752Z,1.24
2024-01-17T08:40:59.907Z,1.25
2024-01-17T08:43:34.064Z,1.22
2024-01-17T08:46:03.760Z,1.18
2024-01-17T08:48:32.172Z,1.19
2024-01-17T08:51:03.833Z,1.13
2024-01-17T08:53:40.349Z,1.23
2024-01-17T08:56:18.587Z,1.19
2024-01-17T08:58:48.247Z,1.23
2024-01-17T09:01:28.711Z,1.22
2024-01-17T09:03:59.163Z,1.19
2024-01-17T09:06:33.931Z,1.27
2024-01-17T09:09:04.723Z,1.26
2024-01-17T09:11:35.047Z,1.30
2024-01-17T09:14:09.584Z,1.24
2024-01-17T09:16:40.336Z,1.29
2024-01-17T09:19:09.123Z,1.20
2024-01-17T09:21:43.046Z,1.28
2024-01-17T09:24:16.762Z,1.13
2024-01-17T09:26:51.993Z,1.23
2024-01-17T09:29:23.754Z,1.11
2024-01-17T09:31:59.741Z,1.01
2024-01-17T09:34:30.995Z,1.05
2024-01-17T09:37:04.901Z,1.12
2024-01-17T09:39:42.514Z,1.01
2024-01-17T09:42:22.087Z,1.15
2024-01-17T09:45:01.758Z,1.06
2024-01-17T09:47:36.521Z,1.27
2024-01-17T09:50:21.252Z,1.27
2024-01-17T09:52:59.196Z,1.27
2024-01-17T09:55:32.381Z,1.32
2024-01-17T09:58:03.680Z,1.49
2024-01-17T10:00:39.560Z,1.42
2024-01-17T10:03:14.773Z,1.61
2024-01-17T10:05:44.400Z,1.64
2024-01-17T10:08:24.009Z,1.75
2024-01-17T10:10:57.004Z,1.88
2024-01-17T10:16:16.810Z,2.08
2024-01-17T10:18:54.037Z,2.01
2024-01-17T10:21:24.940Z,2.14
2024-01-17T10:23:58.029Z,2.36
2024-01-17T10:26:29.458Z,2.28
2024-01-17T10:28:59.891Z,2.31
2024-01-17T10:31:37.754Z,2.25
2024-01-17T10:34:08.478Z,2.30
2024-01-17T10:37:02.323Z,2.31
2024-01-17T10:39:34.180Z,2.25
2024-01-17T10:42:14.304Z,2.29
2024-01-17T10:44:55.764Z,2.16
2024-01-17T10:47:25.268Z,2.32
2024-01-17T10:49:54.170Z,2.31
2024-01-17T10:52:34.611Z,2.39
2024-01-17T10:55:19.310Z,2.47
2024-01-17T10:57:58.716Z,2.53
2024-01-17T11:00:34.682Z,2.49
2024-01-17T11:03:15.063Z,2.51
2024-01-17T11:05:53.676Z,2.51
2024-01-17T11:08:26.242Z,2.55
2024-01-17T11:11:00.313Z,2.70
2024-01-17T11:13:37.821Z,2.64
2024-01-17T11:16:25.264Z,2.58
2024-01-17T11:19:09.850Z,2.47
2024-01-17T11:21:41.177Z,2.53
2024-01-17T11:24:33.893Z,2.47
2024-01-17T11:27:10.744Z,2.48
2024-01-17T11:29:59.784Z,2.47
2024-01-17T11:32:45.835Z,2.44
2024-01-17T11:35:37.249Z,2.51
2024-01-17T11:38:12.869Z,2.39
2024-01-17T11:40:56.516Z,2.30
2024-01-17T11:43:30.875Z,2.26
2024-01-17T11:46:02.087Z,2.27
2024-01-17T11:48:39.678Z,2.17
2024-01-17T11:51:25.347Z,2.15
2024-01-17T11:53:55.068Z,2.13
2024-01-17T11:56:30.702Z,2.20
2024-01-17T11:59:08.486Z,2.20
2024-01-17T12:01:38.738Z,2.12
2024-01-17T12:04:26.445Z,2.24
2024-01-17T12:06:59.297Z,2.19
2024-01-17T12:09:30.907Z,2.16
2024-01-17T12:12:14.634Z,2.21
2024-01-17T12:14:46.629Z,1.77
2024-01-17T12:17:17.999Z,2.19
2024-01-17T12:19:50.665Z,1.64
2024-01-17T12:22:24.698Z,2.24
2024-01-17T12:25:00.546Z,2.24
2024-01-17T12:27:37.331Z,2.22
2024-01-17T12:30:12.768Z,2.22
2024-01-17T12:32:49.523Z,2.21
2024-01-17T12:35:23.357Z,2.28
2024-01-17T12:38:01.497Z,2.34
2024-01-17T12:40:37.717Z,2.44
2024-01-17T12:43:15.973Z,2.36
2024-01-17T12:45:59.405Z,2.43
2024-01-17T12:48:31.717Z,2.50
2024-01-17T12:51:12.266Z,2.51
2024-01-17T12:53:47.336Z,2.38
2024-01-17T12:56:22.971Z,2.56
2024-01-17T12:59:00.895Z,2.79
2024-01-17T13:01:36.097Z,2.87
2024-01-17T13:04:09.883Z,2.86
2024-01-17T13:06:55.739Z,2.99
2024-01-17T13:09:37.500Z,3.00
2024-01-17T13:12:07.880Z,3.08
2024-01-17T13:14:39.896Z,3.22
2024-01-17T13:17:20.658Z,3.22
2024-01-17T13:19:52.039Z,3.35
2024-01-17T13:22:29.957Z,3.32
2024-01-17T13:25:00.196Z,3.39
2024-01-17T13:27:34.174Z,3.49
2024-01-17T13:30:45.706Z,3.49
2024-01-17T13:33:22.499Z,3.54
2024-01-17T13:35:56.669Z,3.52
2024-01-17T13:38:36.203Z,3.56
2024-01-17T13:41:09.663Z,3.42
2024-01-17T13:46:58.968Z,3.42
2024-01-17T13:49:29.106Z,3.40
2024-01-17T13:52:07.720Z,3.40
2024-01-17T13:54:43.058Z,3.27
2024-01-17T13:57:11.681Z,3.29
2024-01-17T13:59:45.834Z,3.30
2024-01-17T14:02:25.245Z,3.30
2024-01-17T14:05:01.447Z,3.31
2024-01-17T14:07:32.990Z,3.22
2024-01-17T14:10:06.328Z,3.28
2024-01-17T14:12:42.820Z,3.28
2024-01-17T14:15:13.515Z,3.33
2024-01-17T14:17:48.029Z,3.91
2024-01-17T14:20:30.575Z,3.75
2024-01-17T14:23:04.330Z,3.63
2024-01-17T14:25:37.868Z,3.65
2024-01-17T14:28:11.845Z,3.56
2024-01-17T14:30:40.577Z,3.72
2024-01-17T14:33:18.407Z,3.72
2024-01-17T14:38:45.741Z,3.84
2024-01-17T14:41:18.130Z,3.82
2024-01-17T14:43:52.145Z,3.85
2024-01-17T14:46:28.158Z,3.92
2024-01-17T14:49:00.650Z,3.99
2024-01-17T14:51:30.229Z,4.02
2024-01-17T14:54:05.900Z,4.04
2024-01-17T14:56:37.017Z,4.10
2024-01-17T14:59:10.559Z,4.05
2024-01-17T15:01:42.962Z,4.07
2024-01-17T15:04:18.616Z,4.05
2024-01-17T15:06:54.703Z,4.17
2024-01-17T15:09:29.328Z,4.26
2024-01-17T15:12:00.739Z,4.38
2024-01-17T15:14:33.969Z,4.38
2024-01-17T15:17:08.140Z,4.32
2024-01-17T15:19:48.729Z,4.37
2024-01-17T15:22:19.021Z,4.31
2024-01-17T15:24:58.000Z,4.37
2024-01-17T15:27:39.166Z,4.42
2024-01-17T15:30:19.330Z,4.44
2024-01-17T15:33:16.150Z,4.43
2024-01-17T15:35:54.961Z,4.44
2024-01-17T15:38:28.693Z,4.41
2024-01-17T15:41:01.635Z,4.32
2024-01-17T15:43:35.104Z,4.43
2024-01-17T15:46:07.042Z,4.38
2024-01-17T15:48:43.626Z,4.40
2024-01-17T15:51:16.059Z,4.41
2024-01-17T15:53:52.568Z,4.24
2024-01-17T15:56:23.945Z,3.74
2024-01-17T15:59:01.617Z,4.31
2024-01-17T16:01:41.719Z,4.36
2024-01-17T16:04:19.521Z,4.21
2024-01-17T16:07:04.960Z,4.25
2024-01-17T16:09:35.747Z,4.13
2024-01-17T16:12:08.816Z,4.07
2024-01-17T16:14:44.086Z,4.10
2024-01-17T16:17:18.951Z,3.90
2024-01-17T16:19:49.300Z,3.93
2024-01-17T16:22:23.507Z,4.03
2024-01-17T16:24:55.166Z,3.68
2024-01-17T16:27:37.687Z,3.98
2024-01-17T16:30:07.390Z,3.94
2024-01-17T16:32:38.350Z,4.03
2024-01-17T16:35:17.777Z,4.04
2024-01-17T16:37:50.636Z,4.05
2024-01-17T16:40:26.137Z,3.92
2024-01-17T16:42:59.665Z,3.78
2024-01-17T16:45:33.153Z,3.88
2024-01-17T16:48:06.428Z,3.93
2024-01-17T16:50:50.698Z,3.92
2024-01-17T16:53:31.354Z,4.04
2024-01-17T16:56:11.146Z,4.09
2024-01-17T16:58:49.852Z,4.06
2024-01-17T17:01:21.391Z,4.05
2024-01-17T17:03:52.215Z,4.00
2024-01-17T17:06:27.256Z,4.04
2024-01-17T17:08:57.653Z,4.13
2024-01-17T17:11:32.376Z,4.16
2024-01-17T17:14:08.728Z,4.08
2024-01-17T17:16:49.136Z,4.16
2024-01-17T17:19:19.338Z,4.15
2024-01-17T17:21:55.567Z,4.11
2024-01-17T17:24:30.638Z,4.00
2024-01-17T17:29:50.078Z,3.97
2024-01-17T17:32:25.282Z,3.96
2024-01-17T17:34:54.937Z,3.84
2024-01-17T17:37:51.355Z,3.80
2024-01-17T17:40:24.703Z,3.87
2024-01-17T17:42:56.222Z,3.87
2024-01-17T17:45:33.803Z,4.01
2024-01-17T17:48:15.394Z,3.95
2024-01-17T17:50:48.092Z,4.02
2024-01-17T17:53:22.284Z,3.90
2024-01-17T17:56:01.857Z,4.01
2024-01-17T17:58:31.739Z,4.07
2024-01-17T18:01:01.638Z,4.08
2024-01-17T18:06:29.206Z,4.03
2024-01-17T18:08:59.665Z,4.03
2024-01-17T18:11:37.123Z,4.07
2024-01-17T18:14:07.470Z,4.12
2024-01-17T18:16:38.423Z,4.17
2024-01-17T18:19:11.392Z,4.21
2024-01-17T18:21:46.769Z,4.15
2024-01-17T18:24:22.500Z,4.27
2024-01-17T18:26:53.086Z,4.26
2024-01-17T18:29:34.551Z,4.27
2024-01-17T18:32:06.176Z,4.18
2024-01-17T18:37:34.285Z,4.15
2024-01-17T18:40:21.907Z,4.17
2024-01-17T18:42:56.040Z,4.21
2024-01-17T18:45:24.150Z,4.15
2024-01-17T18:47:59.317Z,4.15
2024-01-17T18:50:38.374Z,4.20
2024-01-17T18:53:12.164Z,4.27
2024-01-17T18:55:42.929Z,4.20
2024-01-17T18:58:14.587Z,4.21
2024-01-17T19:00:46.675Z,4.26
2024-01-17T19:03:16.748Z,4.25
2024-01-17T19:05:53.610Z,4.19
2024-01-17T19:08:26.338Z,4.23
2024-01-17T19:11:03.844Z,4.16
2024-01-17T19:13:40.115Z,4.24
2024-01-17T19:16:23.528Z,4.18
2024-01-17T19:19:04.793Z,4.16
2024-01-17T19:21:49.931Z,4.17
2024-01-17T19:24:38.278Z,4.22
2024-01-17T19:27:13.008Z,4.16
2024-01-17T19:29:48.237Z,4.17
2024-01-17T19:32:31.267Z,4.16
2024-01-17T19:35:00.312Z,4.16
2024-01-17T19:37:43.466Z,4.13
2024-01-17T19:40:21.176Z,4.26
2024-01-17T19:43:03.416Z,4.28
2024-01-17T19:45:42.020Z,4.34
2024-01-17T19:50:58.579Z,4.23
2024-01-17T19:53:39.742Z,4.33
2024-01-17T19:56:09.020Z,4.21
2024-01-17T19:58:40.398Z,4.20
2024-01-17T20:01:17.766Z,4.33
2024-01-17T20:03:57.705Z,4.46
2024-01-17T20:06:30.598Z,4.45
2024-01-17T20:09:16.404Z,4.45
2024-01-17T20:11:45.514Z,4.38
2024-01-17T20:14:17.811Z,4.49
2024-01-17T20:16:56.088Z,3.83
2024-01-17T20:19:31.778Z,4.30
2024-01-17T20:22:05.623Z,4.24
2024-01-17T20:24:37.832Z,4.32
2024-01-17T20:27:15.442Z,4.43
2024-01-17T20:29:47.991Z,4.43
2024-01-17T20:32:25.671Z,4.40
2024-01-17T20:34:59.240Z,4.37
2024-01-17T20:37:31.286Z,4.36
2024-01-17T20:40:04.152Z,4.46
2024-01-17T20:42:47.195Z,4.40
2024-01-17T20:45:24.348Z,4.43
2024-01-17T20:47:56.545Z,4.42
2024-01-17T20:50:27.371Z,4.44
2024-01-17T20:53:03.056Z,4.43
2024-01-17T20:55:33.673Z,4.38
2024-01-17T20:58:03.666Z,4.46
2024-01-17T21:00:39.569Z,4.47
2024-01-17T21:03:10.661Z,4.48
2024-01-17T21:05:46.835Z,4.41
2024-01-17T21:08:32.766Z,4.46
2024-01-17T21:11:05.142Z,4.42
2024-01-17T21:13:42.000Z,4.49
2024-01-17T21:16:22.330Z,4.48
2024-01-17T21:18:57.033Z,4.52
2024-01-17T21:21:43.958Z,4.53
2024-01-17T21:24:16.968Z,4.56
2024-01-17T21:26:51.023Z,4.47
2024-01-17T21:29:20.974Z,4.41
2024-01-17T21:31:58.594Z,4.49
2024-01-17T21:34:31.089Z,4.54
2024-01-17T21:37:13.801Z,4.56
2024-01-17T21:39:49.643Z,4.51
2024-01-17T21:42:23.742Z,4.56
2024-01-17T21:44:56.839Z,4.53
2024-01-17T21:47:36.316Z,4.57
2024-01-17T21:50:16.978Z,4.08
2024-01-17T21:52:49.515Z,4.51
2024-01-17T21:55:20.187Z,4.56
2024-01-17T21:57:56.930Z,4.50
2024-01-17T22:00:31.842Z,4.53
2024-01-17T22:03:00.924Z,4.50
2024-01-17T22:05:35.228Z,4.57
2024-01-17T22:08:10.000Z,4.61
2024-01-17T22:10:52.915Z,4.65
2024-01-17T22:13:22.177Z,4.69
2024-01-17T22:15:58.912Z,4.67
2024-01-17T22:18:29.257Z,4.67
2024-01-17T22:20:59.938Z,4.65
2024-01-17T22:23:31.653Z,4.66
2024-01-17T22:26:06.605Z,4.67
2024-01-17T22:28:40.273Z,4.64
2024-01-17T22:31:33.396Z,4.64
2024-01-17T22:36:43.669Z,4.54
2024-01-17T22:39:17.062Z,4.67
2024-01-17T22:41:54.822Z,4.71
2024-01-17T22:44:29.650Z,4.76
2024-01-17T22:47:00.631Z,4.70
2024-01-17T22:49:33.790Z,4.73
2024-01-17T22:52:06.700Z,4.74
2024-01-17T22:54:39.392Z,4.75
2024-01-17T22:57:14.945Z,4.79
2024-01-17T22:59:47.223Z,4.74
2024-01-17T23:02:15.996Z,4.69
2024-01-17T23:04:52.925Z,4.77
2024-01-17T23:07:27.599Z,4.78
2024-01-17T23:10:21.662Z,4.79
2024-01-17T23:15:41.228Z,4.71
2024-01-17T23:18:13.246Z,4.66
2024-01-17T23:20:51.267Z,4.66
2024-01-17T23:23:22.841Z,4.77
2024-01-17T23:25:54.574Z,4.79
2024-01-17T23:31:10.299Z,4.82
2024-01-17T23:33:42.915Z,4.87
2024-01-17T23:36:24.775Z,4.76
2024-01-17T23:38:58.774Z,4.88
2024-01-17T23:41:31.188Z,4.79
2024-01-17T23:44:11.256Z,4.83
2024-01-17T23:46:41.191Z,4.78
2024-01-17T23:49:12.992Z,4.79
2024-01-17T23:51:51.064Z,4.81
2024-01-17T23:54:22.200Z,4.73
2024-01-17T23:56:53.970Z,4.77
2024-01-17T23:59:31.046Z,4.78
